sensor_id;sensor_type;location;lat;lon;timestamp;temperature;humidity
36586;DHT22;22591;48.314;11.562;2024-01-15T00:00:41;-3.70;99.90
36586;DHT22;22591;48.314;11.562;2024-01-15T00:03:07;-3.60;99.90
36586;DHT22;22591;48.314;11.562;2024-01-15T00:05:32;-3.50;99.90
36586;DHT22;22591;48.314;11.562;2024-01-15T00:07:58;-3.50;99.90
36586;DHT22;22591;48.314;11.562;2024-01-15T00:10:24;-3.50;99.90
36586;DHT22;22591;48.314;11.562;2024-01-15T00:12:49;-3.50;99.90
36586;DHT22;22591;48.314;11.562;2024-01-15T00:15:15;-3.40;99.90
36586;DHT22;22591;48.314;11.562;2024-01-15T00:17:41;-3.10;99.90
36586;DHT22;22591;48.314;11.562;2024-01-15T00:20:07;-3.00;99.90
36586;DHT22;22591;48.314;11.562;2024-01-15T00:22:32;-2.80;99.90
36586;DHT22;22591;48.314;11.562;2024-01-15T00:24:58;-2.80;99.90
36586;DHT22;22591;48.314;11.562;2024-01-15T00:27:24;-2.60;99.90
36586;DHT22;22591;48.314;11.562;2024-01-15T00:29:49;-2.60;99.90
36586;DHT22;22591;48.314;11.562;2024-01-15T00:32:19;-2.50;99.90
36586;DHT22;22591;48.314;11.562;2024-01-15T00:34:45;-2.50;99.90
36586;DHT22;22591;48.314;11.562;2024-01-15T00:37:11;-2.50;99.90
36586;DHT22;22591;48.314;11.562;2024-01-15T00:39:36;-2.50;99.90
36586;DHT22;22591;48.314;11.562;2024-01-15T00:42:02;-2.50;99.90
36586;DHT22;22591;48.314;11.562;2024-01-15T00:44:28;-2.50;99.90
36586;DHT22;22591;48.314;11.562;2024-01-15T00:46:53;-2.50;99.90
36586;DHT22;22591;48.314;11.562;2024-01-15T00:49:19;-2.60;99.90
36586;DHT22;22591;48.314;11.562;2024-01-15T00:51:44;-2.60;99.90
36586;DHT22;22591;48.314;11.562;2024-01-15T00:54:10;-2.60;99.90
36586;DHT22;22591;48.314;11.562;2024-01-15T00:56:36;-2.60;99.90
36586;DHT22;22591;48.314;11.562;2024-01-15T00:59:02;-2.50;99.90
36586;DHT22;22591;48.314;11.562;2024-01-15T01:01:28;-2.40;99.90
36586;DHT22;22591;48.314;11.562;2024-01-15T01:03:53;-2.40;99.90
36586;DHT22;22591;48.314;11.562;2024-01-15T01:06:19;-2.40;99.90
36586;DHT22;22591;48.314;11.562;2024-01-15T01:08:45;-2.40;99.90
36586;DHT22;22591;48.314;11.562;2024-01-15T01:11:14;-2.40;99.90
36586;DHT22;22591;48.314;11.562;2024-01-15T01:13:40;-2.40;99.90
36586;DHT22;22591;48.314;11.562;2024-01-15T01:16:06;-2.40;99.90
36586;DHT22;22591;48.314;11.562;2024-01-15T01:18:31;-2.40;99.90
36586;DHT22;22591;48.314;11.562;2024-01-15T01:20:57;-2.40;99.90
36586;DHT22;22591;48.314;11.562;2024-01-15T01:23:22;-2.40;99.90
36586;DHT22;22591;48.314;11.562;2024-01-15T01:25:48;-2.30;99.90
36586;DHT22;22591;48.314;11.562;2024-01-15T01:28:13;-2.40;99.90
36586;DHT22;22591;48.314;11.562;2024-01-15T01:30:39;-2.40;99.90
36586;DHT22;22591;48.314;11.562;2024-01-15T01:33:04;-2.40;99.90
36586;DHT22;22591;48.314;11.562;2024-01-15T01:35:30;-2.50;99.90
36586;DHT22;22591;48.314;11.562;2024-01-15T01:37:55;-2.60;99.90
36586;DHT22;22591;48.314;11.562;2024-01-15T01:40:21;-2.50;99.90
36586;DHT22;22591;48.314;11.562;2024-01-15T01:42:48;-2.50;99.90
36586;DHT22;22591;48.314;11.562;2024-01-15T01:45:15;-2.50;99.90
36586;DHT22;22591;48.314;11.562;2024-01-15T01:47:40;-2.60;99.90
36586;DHT22;22591;48.314;11.562;2024-01-15T01:50:06;-2.60;99.90
36586;DHT22;22591;48.314;11.562;2024-01-15T01:52:32;-2.60;99.90
36586;DHT22;22591;48.314;11.562;2024-01-15T01:55:00;-2.60;99.90
36586;DHT22;22591;48.314;11.562;2024-01-15T01:57:27;-2.70;99.90
36586;DHT22;22591;48.314;11.562;2024-01-15T01:59:53;-2.70;99.90
36586;DHT22;22591;48.314;11.562;2024-01-15T02:02:20;-2.60;99.90
36586;DHT22;22591;48.314;11.562;2024-01-15T02:04:47;-2.60;99.90
36586;DHT22;22591;48.314;11.562;2024-01-15T02:07:13;-2.60;99.90
36586;DHT22;22591;48.314;11.562;2024-01-15T02:09:39;-2.60;99.90
36586;DHT22;22591;48.314;11.562;2024-01-15T02:12:05;-2.60;99.90
36586;DHT22;22591;48.314;11.562;2024-01-15T02:14:31;-2.70;99.90
36586;DHT22;22591;48.314;11.562;2024-01-15T02:16:56;-2.70;99.90
36586;DHT22;22591;48.314;11.562;2024-01-15T02:19:22;-2.80;99.90
36586;DHT22;22591;48.314;11.562;2024-01-15T02:21:47;-2.80;99.90
36586;DHT22;22591;48.314;11.562;2024-01-15T02:24:13;-2.80;99.90
36586;DHT22;22591;48.314;11.562;2024-01-15T02:26:39;-2.80;99.90
36586;DHT22;22591;48.314;11.562;2024-01-15T02:29:07;-2.70;99.90
36586;DHT22;22591;48.314;11.562;2024-01-15T02:31:36;-2.80;99.90
36586;DHT22;22591;48.314;11.562;2024-01-15T02:34:02;-2.70;99.90
36586;DHT22;22591;48.314;11.562;2024-01-15T02:36:27;-2.70;99.90
36586;DHT22;22591;48.314;11.562;2024-01-15T02:38:53;-2.80;99.90
36586;DHT22;22591;48.314;11.562;2024-01-15T02:41:18;-2.80;99.90
36586;DHT22;22591;48.314;11.562;2024-01-15T02:43:44;-2.80;99.90
36586;DHT22;22591;48.314;11.562;2024-01-15T02:46:09;-2.80;99.90
36586;DHT22;22591;48.314;11.562;2024-01-15T02:48:35;-2.80;99.90
36586;DHT22;22591;48.314;11.562;2024-01-15T02:51:01;-2.80;99.90
36586;DHT22;22591;48.314;11.562;2024-01-15T02:53:27;-2.70;99.90
36586;DHT22;22591;48.314;11.562;2024-01-15T02:55:53;-2.70;99.90
36586;DHT22;22591;48.314;11.562;2024-01-15T02:58:18;-2.70;99.90
36586;DHT22;22591;48.314;11.562;2024-01-15T03:00:44;-2.70;99.90
36586;DHT22;22591;48.314;11.562;2024-01-15T03:03:09;-2.80;99.90
36586;DHT22;22591;48.314;11.562;2024-01-15T03:05:35;-2.80;99.90
36586;DHT22;22591;48.314;11.562;2024-01-15T03:08:00;-2.80;99.90
36586;DHT22;22591;48.314;11.562;2024-01-15T03:10:26;-2.80;99.90
36586;DHT22;22591;48.314;11.562;2024-01-15T03:12:51;-2.80;99.90
36586;DHT22;22591;48.314;11.562;2024-01-15T03:15:17;-2.80;99.90
36586;DHT22;22591;48.314;11.562;2024-01-15T03:17:43;-2.80;99.90
36586;DHT22;22591;48.314;11.562;2024-01-15T03:20:10;-2.80;99.90
36586;DHT22;22591;48.314;11.562;2024-01-15T03:22:35;-2.80;99.90
36586;DHT22;22591;48.314;11.562;2024-01-15T03:25:01;-2.80;99.90
36586;DHT22;22591;48.314;11.562;2024-01-15T03:27:26;-2.90;99.90
36586;DHT22;22591;48.314;11.562;2024-01-15T03:29:52;-2.90;99.90
36586;DHT22;22591;48.314;11.562;2024-01-15T03:32:17;-2.90;99.90
36586;DHT22;22591;48.314;11.562;2024-01-15T03:34:44;-2.90;99.90
36586;DHT22;22591;48.314;11.562;2024-01-15T03:37:11;-2.90;99.90
36586;DHT22;22591;48.314;11.562;2024-01-15T03:39:36;-2.90;99.90
36586;DHT22;22591;48.314;11.562;2024-01-15T03:42:02;-2.90;99.90
36586;DHT22;22591;48.314;11.562;2024-01-15T03:44:28;-2.90;99.90
36586;DHT22;22591;48.314;11.562;2024-01-15T03:46:53;-3.00;99.90
36586;DHT22;22591;48.314;11.562;2024-01-15T03:49:19;-3.00;99.90
36586;DHT22;22591;48.314;11.562;2024-01-15T03:51:44;-3.20;99.90
36586;DHT22;22591;48.314;11.562;2024-01-15T03:54:10;-3.20;99.90
36586;DHT22;22591;48.314;11.562;2024-01-15T03:56:36;-3.20;99.90
36586;DHT22;22591;48.314;11.562;2024-01-15T03:59:01;-3.20;99.90
36586;DHT22;22591;48.314;11.562;2024-01-15T04:01:27;-3.20;99.90
36586;DHT22;22591;48.314;11.562;2024-01-15T04:03:52;-3.20;99.90
36586;DHT22;22591;48.314;11.562;2024-01-15T04:06:18;-3.20;99.90
36586;DHT22;22591;48.314;11.562;2024-01-15T04:08:43;-3.20;99.90
36586;DHT22;22591;48.314;11.562;2024-01-15T04:11:09;-3.20;99.90
36586;DHT22;22591;48.314;11.562;2024-01-15T04:13:35;-3.30;99.90
36586;DHT22;22591;48.314;11.562;2024-01-15T04:16:01;-3.30;99.90
36586;DHT22;22591;48.314;11.562;2024-01-15T04:18:27;-3.30;99.90
36586;DHT22;22591;48.314;11.562;2024-01-15T04:20:52;-3.30;99.90
36586;DHT22;22591;48.314;11.562;2024-01-15T04:23:18;-3.30;99.90
36586;DHT22;22591;48.314;11.562;2024-01-15T04:25:43;-3.30;99.90
36586;DHT22;22591;48.314;11.562;2024-01-15T04:28:09;-3.30;99.90
36586;DHT22;22591;48.314;11.562;2024-01-15T04:30:35;-3.30;99.90
36586;DHT22;22591;48.314;11.562;2024-01-15T04:33:01;-3.30;99.90
36586;DHT22;22591;48.314;11.562;2024-01-15T04:35:26;-3.30;99.90
36586;DHT22;22591;48.314;11.562;2024-01-15T04:37:52;-3.30;99.90
36586;DHT22;22591;48.314;11.562;2024-01-15T04:40:18;-3.20;99.90
36586;DHT22;22591;48.314;11.562;2024-01-15T04:42:43;-3.20;99.90
36586;DHT22;22591;48.314;11.562;2024-01-15T04:45:11;-3.20;99.90
36586;DHT22;22591;48.314;11.562;2024-01-15T04:47:36;-3.20;99.90
36586;DHT22;22591;48.314;11.562;2024-01-15T04:50:03;-3.30;99.90
36586;DHT22;22591;48.314;11.562;2024-01-15T04:52:29;-3.30;99.90
36586;DHT22;22591;48.314;11.562;2024-01-15T04:54:54;-3.30;99.90
36586;DHT22;22591;48.314;11.562;2024-01-15T04:57:20;-3.20;99.90
36586;DHT22;22591;48.314;11.562;2024-01-15T04:59:45;-3.20;99.90
36586;DHT22;22591;48.314;11.562;2024-01-15T05:02:11;-3.10;99.90
36586;DHT22;22591;48.314;11.562;2024-01-15T05:04:36;-3.10;99.90
36586;DHT22;22591;48.314;11.562;2024-01-15T05:07:02;-3.00;99.90
36586;DHT22;22591;48.314;11.562;2024-01-15T05:09:28;-3.00;99.90
36586;DHT22;22591;48.314;11.562;2024-01-15T05:11:54;-3.00;99.90
36586;DHT22;22591;48.314;11.562;2024-01-15T05:14:19;-3.00;99.90
36586;DHT22;22591;48.314;11.562;2024-01-15T05:16:48;-3.00;99.90
36586;DHT22;22591;48.314;11.562;2024-01-15T05:19:14;-3.00;99.90
36586;DHT22;22591;48.314;11.562;2024-01-15T05:21:40;-3.00;99.90
36586;DHT22;22591;48.314;11.562;2024-01-15T05:24:06;-3.00;99.90
36586;DHT22;22591;48.314;11.562;2024-01-15T05:26:31;-3.00;99.90
36586;DHT22;22591;48.314;11.562;2024-01-15T05:28:57;-2.90;99.90
36586;DHT22;22591;48.314;11.562;2024-01-15T05:31:22;-2.80;99.90
36586;DHT22;22591;48.314;11.562;2024-01-15T05:33:48;-2.80;99.90
36586;DHT22;22591;48.314;11.562;2024-01-15T05:36:13;-2.90;99.90
36586;DHT22;22591;48.314;11.562;2024-01-15T05:38:39;-2.80;99.90
36586;DHT22;22591;48.314;11.562;2024-01-15T05:41:05;-2.70;99.90
36586;DHT22;22591;48.314;11.562;2024-01-15T05:43:31;-2.60;99.90
36586;DHT22;22591;48.314;11.562;2024-01-15T05:45:57;-2.60;99.90
36586;DHT22;22591;48.314;11.562;2024-01-15T05:48:22;-2.60;99.90
36586;DHT22;22591;48.314;11.562;2024-01-15T05:50:48;-2.50;99.90
36586;DHT22;22591;48.314;11.562;2024-01-15T05:53:13;-2.40;99.90
36586;DHT22;22591;48.314;11.562;2024-01-15T05:55:40;-2.40;99.90
36586;DHT22;22591;48.314;11.562;2024-01-15T05:58:05;-2.40;99.90
36586;DHT22;22591;48.314;11.562;2024-01-15T06:00:31;-2.40;99.90
36586;DHT22;22591;48.314;11.562;2024-01-15T06:02:58;-2.40;99.90
36586;DHT22;22591;48.314;11.562;2024-01-15T06:05:24;-2.30;99.90
36586;DHT22;22591;48.314;11.562;2024-01-15T06:07:50;-2.40;99.90
36586;DHT22;22591;48.314;11.562;2024-01-15T06:10:15;-2.30;99.90
36586;DHT22;22591;48.314;11.562;2024-01-15T06:12:43;-2.30;99.90
36586;DHT22;22591;48.314;11.562;2024-01-15T06:15:09;-2.30;99.90
36586;DHT22;22591;48.314;11.562;2024-01-15T06:17:35;-2.20;99.90
36586;DHT22;22591;48.314;11.562;2024-01-15T06:20:00;-2.30;99.90
36586;DHT22;22591;48.314;11.562;2024-01-15T06:22:26;-2.20;99.90
36586;DHT22;22591;48.314;11.562;2024-01-15T06:24:51;-2.20;99.90
36586;DHT22;22591;48.314;11.562;2024-01-15T06:27:17;-2.20;99.90
36586;DHT22;22591;48.314;11.562;2024-01-15T06:29:45;-2.20;99.90
36586;DHT22;22591;48.314;11.562;2024-01-15T06:32:12;-2.10;99.90
36586;DHT22;22591;48.314;11.562;2024-01-15T06:34:38;-2.10;99.90
36586;DHT22;22591;48.314;11.562;2024-01-15T06:37:03;-2.10;99.90
36586;DHT22;22591;48.314;11.562;2024-01-15T06:39:29;-2.00;99.90
36586;DHT22;22591;48.314;11.562;2024-01-15T06:41:54;-2.00;99.90
36586;DHT22;22591;48.314;11.562;2024-01-15T06:44:20;-1.90;99.90
36586;DHT22;22591;48.314;11.562;2024-01-15T06:46:47;-2.00;99.90
36586;DHT22;22591;48.314;11.562;2024-01-15T06:49:12;-2.00;99.90
36586;DHT22;22591;48.314;11.562;2024-01-15T06:51:38;-1.90;99.90
36586;DHT22;22591;48.314;11.562;2024-01-15T06:54:04;-1.90;99.90
36586;DHT22;22591;48.314;11.562;2024-01-15T06:56:30;-2.00;99.90
36586;DHT22;22591;48.314;11.562;2024-01-15T06:58:56;-2.00;99.90
36586;DHT22;22591;48.314;11.562;2024-01-15T07:01:22;-1.90;99.90
36586;DHT22;22591;48.314;11.562;2024-01-15T07:03:47;-1.80;99.90
36586;DHT22;22591;48.314;11.562;2024-01-15T07:06:13;-1.80;99.90
36586;DHT22;22591;48.314;11.562;2024-01-15T07:08:40;-1.80;99.90
36586;DHT22;22591;48.314;11.562;2024-01-15T07:11:06;-1.90;99.90
36586;DHT22;22591;48.314;11.562;2024-01-15T07:13:32;-1.90;99.90
36586;DHT22;22591;48.314;11.562;2024-01-15T07:15:57;-1.90;99.90
36586;DHT22;22591;48.314;11.562;2024-01-15T07:18:23;-1.80;99.90
36586;DHT22;22591;48.314;11.562;2024-01-15T07:20:49;-1.80;99.90
36586;DHT22;22591;48.314;11.562;2024-01-15T07:23:14;-1.80;99.90
36586;DHT22;22591;48.314;11.562;2024-01-15T07:25:40;-1.80;99.90
36586;DHT22;22591;48.314;11.562;2024-01-15T07:28:05;-1.70;99.90
36586;DHT22;22591;48.314;11.562;2024-01-15T07:30:31;-1.80;99.90
36586;DHT22;22591;48.314;11.562;2024-01-15T07:32:56;-1.80;99.90
36586;DHT22;22591;48.314;11.562;2024-01-15T07:35:22;-1.70;99.90
36586;DHT22;22591;48.314;11.562;2024-01-15T07:37:47;-1.70;99.90
36586;DHT22;22591;48.314;11.562;2024-01-15T07:40:13;-1.70;99.90
36586;DHT22;22591;48.314;11.562;2024-01-15T07:42:39;-1.70;99.90
36586;DHT22;22591;48.314;11.562;2024-01-15T07:45:05;-1.60;99.90
36586;DHT22;22591;48.314;11.562;2024-01-15T07:47:31;-1.70;99.90
36586;DHT22;22591;48.314;11.562;2024-01-15T07:49:57;-1.70;99.90
36586;DHT22;22591;48.314;11.562;2024-01-15T07:52:22;-1.70;99.90
36586;DHT22;22591;48.314;11.562;2024-01-15T07:54:48;-1.70;99.90
36586;DHT22;22591;48.314;11.562;2024-01-15T07:57:13;-1.70;99.90
36586;DHT22;22591;48.314;11.562;2024-01-15T07:59:39;-1.70;99.90
36586;DHT22;22591;48.314;11.562;2024-01-15T08:02:05;-1.80;99.90
36586;DHT22;22591;48.314;11.562;2024-01-15T08:04:31;-1.80;99.90
36586;DHT22;22591;48.314;11.562;2024-01-15T08:06:57;-1.80;99.90
36586;DHT22;22591;48.314;11.562;2024-01-15T08:09:22;-1.70;99.90
36586;DHT22;22591;48.314;11.562;2024-01-15T08:11:48;-1.70;99.90
36586;DHT22;22591;48.314;11.562;2024-01-15T08:14:14;-1.70;99.90
36586;DHT22;22591;48.314;11.562;2024-01-15T08:16:40;-1.60;99.90
36586;DHT22;22591;48.314;11.562;2024-01-15T08:19:06;-1.50;99.90
36586;DHT22;22591;48.314;11.562;2024-01-15T08:21:32;-1.40;99.90
36586;DHT22;22591;48.314;11.562;2024-01-15T08:24:02;-1.30;99.90
36586;DHT22;22591;48.314;11.562;2024-01-15T08:26:28;-1.30;99.90
36586;DHT22;22591;48.314;11.562;2024-01-15T08:28:54;-1.30;99.90
36586;DHT22;22591;48.314;11.562;2024-01-15T08:31:20;-1.30;99.90
36586;DHT22;22591;48.314;11.562;2024-01-15T08:33:46;-1.20;99.90
36586;DHT22;22591;48.314;11.562;2024-01-15T08:36:12;-1.20;99.90
36586;DHT22;22591;48.314;11.562;2024-01-15T08:38:38;-1.20;99.90
36586;DHT22;22591;48.314;11.562;2024-01-15T08:41:03;-1.20;99.90
36586;DHT22;22591;48.314;11.562;2024-01-15T08:43:29;-1.20;99.90
36586;DHT22;22591;48.314;11.562;2024-01-15T08:45:56;-1.20;99.90
36586;DHT22;22591;48.314;11.562;2024-01-15T08:48:22;-1.20;99.90
36586;DHT22;22591;48.314;11.562;2024-01-15T08:50:48;-1.20;99.90
36586;DHT22;22591;48.314;11.562;2024-01-15T08:53:13;-1.10;99.90
36586;DHT22;22591;48.314;11.562;2024-01-15T08:55:39;-1.10;99.90
36586;DHT22;22591;48.314;11.562;2024-01-15T08:58:05;-1.00;99.90
36586;DHT22;22591;48.314;11.562;2024-01-15T09:00:31;-0.90;99.90
36586;DHT22;22591;48.314;11.562;2024-01-15T09:02:57;-0.80;99.90
36586;DHT22;22591;48.314;11.562;2024-01-15T09:05:22;-0.70;99.90
36586;DHT22;22591;48.314;11.562;2024-01-15T09:07:48;-0.60;99.90
36586;DHT22;22591;48.314;11.562;2024-01-15T09:10:14;-0.60;99.90
36586;DHT22;22591;48.314;11.562;2024-01-15T09:12:40;-0.50;99.90
36586;DHT22;22591;48.314;11.562;2024-01-15T09:15:06;-0.40;99.90
36586;DHT22;22591;48.314;11.562;2024-01-15T09:17:32;-0.40;99.90
36586;DHT22;22591;48.314;11.562;2024-01-15T09:19:58;-0.30;99.80
36586;DHT22;22591;48.314;11.562;2024-01-15T09:22:23;-0.30;99.90
36586;DHT22;22591;48.314;11.562;2024-01-15T09:24:49;-0.50;99.90
36586;DHT22;22591;48.314;11.562;2024-01-15T09:27:14;-0.60;99.90
36586;DHT22;22591;48.314;11.562;2024-01-15T09:29:41;-0.60;99.90
36586;DHT22;22591;48.314;11.562;2024-01-15T09:32:08;-0.60;99.90
36586;DHT22;22591;48.314;11.562;2024-01-15T09:34:34;-0.60;99.90
36586;DHT22;22591;48.314;11.562;2024-01-15T09:37:00;-0.60;99.90
36586;DHT22;22591;48.314;11.562;2024-01-15T09:39:28;-0.60;99.90
36586;DHT22;22591;48.314;11.562;2024-01-15T09:41:54;-0.50;99.90
36586;DHT22;22591;48.314;11.562;2024-01-15T09:44:20;-0.60;99.90
36586;DHT22;22591;48.314;11.562;2024-01-15T09:46:46;-0.60;99.90
36586;DHT22;22591;48.314;11.562;2024-01-15T09:49:15;-0.50;99.90
36586;DHT22;22591;48.314;11.562;2024-01-15T09:51:41;-0.50;99.90
36586;DHT22;22591;48.314;11.562;2024-01-15T09:54:07;-0.60;99.90
36586;DHT22;22591;48.314;11.562;2024-01-15T09:56:34;-0.50;99.90
36586;DHT22;22591;48.314;11.562;2024-01-15T09:59:00;-0.50;99.90
36586;DHT22;22591;48.314;11.562;2024-01-15T10:01:26;-0.50;99.90
36586;DHT22;22591;48.314;11.562;2024-01-15T10:03:54;-0.50;99.90
36586;DHT22;22591;48.314;11.562;2024-01-15T10:06:21;-0.40;99.90
36586;DHT22;22591;48.314;11.562;2024-01-15T10:08:51;-0.40;99.90
36586;DHT22;22591;48.314;11.562;2024-01-15T10:11:17;-0.40;99.90
36586;DHT22;22591;48.314;11.562;2024-01-15T10:13:49;-0.40;99.90
36586;DHT22;22591;48.314;11.562;2024-01-15T10:16:19;-0.40;99.90
36586;DHT22;22591;48.314;11.562;2024-01-15T10:18:44;-0.40;99.90
36586;DHT22;22591;48.314;11.562;2024-01-15T10:21:10;-0.40;99.90
36586;DHT22;22591;48.314;11.562;2024-01-15T10:23:35;-0.40;99.90
36586;DHT22;22591;48.314;11.562;2024-01-15T10:26:02;-0.40;99.90
36586;DHT22;22591;48.314;11.562;2024-01-15T10:28:28;-0.30;99.90
36586;DHT22;22591;48.314;11.562;2024-01-15T10:30:57;-0.30;99.90
36586;DHT22;22591;48.314;11.562;2024-01-15T10:33:22;-0.20;99.90
36586;DHT22;22591;48.314;11.562;2024-01-15T10:35:59;-0.10;99.90
36586;DHT22;22591;48.314;11.562;2024-01-15T10:38:25;-0.10;99.90
36586;DHT22;22591;48.314;11.562;2024-01-15T10:40:51;-0.10;99.90
36586;DHT22;22591;48.314;11.562;2024-01-15T10:43:17;-0.10;99.90
36586;DHT22;22591;48.314;11.562;2024-01-15T10:45:47;0.00;99.90
36586;DHT22;22591;48.314;11.562;2024-01-15T10:48:13;0.10;99.90
36586;DHT22;22591;48.314;11.562;2024-01-15T10:50:39;0.30;99.90
36586;DHT22;22591;48.314;11.562;2024-01-15T10:53:05;0.50;99.90
36586;DHT22;22591;48.314;11.562;2024-01-15T10:55:35;0.50;99.90
36586;DHT22;22591;48.314;11.562;2024-01-15T10:58:02;0.60;99.90
36586;DHT22;22591;48.314;11.562;2024-01-15T11:00:29;0.60;99.90
36586;DHT22;22591;48.314;11.562;2024-01-15T11:02:55;0.70;99.70
36586;DHT22;22591;48.314;11.562;2024-01-15T11:05:22;0.70;99.50
36586;DHT22;22591;48.314;11.562;2024-01-15T11:07:49;0.70;99.00
36586;DHT22;22591;48.314;11.562;2024-01-15T11:10:37;0.70;99.20
36586;DHT22;22591;48.314;11.562;2024-01-15T11:13:03;0.70;99.50
36586;DHT22;22591;48.314;11.562;2024-01-15T11:15:28;0.70;99.00
36586;DHT22;22591;48.314;11.562;2024-01-15T11:17:58;0.60;98.30
36586;DHT22;22591;48.314;11.562;2024-01-15T11:20:28;0.70;98.70
36586;DHT22;22591;48.314;11.562;2024-01-15T11:22:54;0.60;98.10
36586;DHT22;22591;48.314;11.562;2024-01-15T11:25:22;0.60;98.40
36586;DHT22;22591;48.314;11.562;2024-01-15T11:27:52;0.60;98.10
36586;DHT22;22591;48.314;11.562;2024-01-15T11:30:18;0.60;98.10
36586;DHT22;22591;48.314;11.562;2024-01-15T11:32:45;0.70;97.80
36586;DHT22;22591;48.314;11.562;2024-01-15T11:35:13;0.70;97.70
36586;DHT22;22591;48.314;11.562;2024-01-15T11:40:18;0.90;97.40
36586;DHT22;22591;48.314;11.562;2024-01-15T11:42:45;1.10;97.10
36586;DHT22;22591;48.314;11.562;2024-01-15T11:45:11;1.00;97.10
36586;DHT22;22591;48.314;11.562;2024-01-15T11:50:14;1.10;97.70
36586;DHT22;22591;48.314;11.562;2024-01-15T11:52:46;1.20;97.80
36586;DHT22;22591;48.314;11.562;2024-01-15T11:55:41;1.30;97.70
36586;DHT22;22591;48.314;11.562;2024-01-15T11:58:10;1.30;97.00
36586;DHT22;22591;48.314;11.562;2024-01-15T12:00:47;1.20;97.10
36586;DHT22;22591;48.314;11.562;2024-01-15T12:03:14;1.10;96.70
36586;DHT22;22591;48.314;11.562;2024-01-15T12:05:40;1.20;96.70
36586;DHT22;22591;48.314;11.562;2024-01-15T12:08:07;1.00;96.50
36586;DHT22;22591;48.314;11.562;2024-01-15T12:10:40;1.10;96.60
36586;DHT22;22591;48.314;11.562;2024-01-15T12:13:13;1.10;96.40
36586;DHT22;22591;48.314;11.562;2024-01-15T12:15:43;1.10;96.90
36586;DHT22;22591;48.314;11.562;2024-01-15T12:18:10;1.10;97.30
36586;DHT22;22591;48.314;11.562;2024-01-15T12:20:36;0.90;97.20
36586;DHT22;22591;48.314;11.562;2024-01-15T12:23:02;0.90;97.10
36586;DHT22;22591;48.314;11.562;2024-01-15T12:25:31;1.00;97.10
36586;DHT22;22591;48.314;11.562;2024-01-15T12:27:58;1.20;97.00
36586;DHT22;22591;48.314;11.562;2024-01-15T12:30:24;1.40;96.50
36586;DHT22;22591;48.314;11.562;2024-01-15T12:32:50;1.50;96.40
36586;DHT22;22591;48.314;11.562;2024-01-15T12:35:16;1.60;95.80
36586;DHT22;22591;48.314;11.562;2024-01-15T12:37:42;1.60;95.70
36586;DHT22;22591;48.314;11.562;2024-01-15T12:40:09;1.60;96.10
36586;DHT22;22591;48.314;11.562;2024-01-15T12:42:42;1.70;96.40
36586;DHT22;22591;48.314;11.562;2024-01-15T12:45:09;1.50;96.10
36586;DHT22;22591;48.314;11.562;2024-01-15T12:47:35;1.40;96.00
36586;DHT22;22591;48.314;11.562;2024-01-15T12:50:01;1.30;96.40
36586;DHT22;22591;48.314;11.562;2024-01-15T12:52:28;1.30;96.50
36586;DHT22;22591;48.314;11.562;2024-01-15T12:54:54;1.30;97.00
36586;DHT22;22591;48.314;11.562;2024-01-15T12:57:19;1.40;96.50
36586;DHT22;22591;48.314;11.562;2024-01-15T12:59:45;1.30;96.70
36586;DHT22;22591;48.314;11.562;2024-01-15T13:02:12;1.40;96.90
36586;DHT22;22591;48.314;11.562;2024-01-15T13:04:38;1.40;96.80
36586;DHT22;22591;48.314;11.562;2024-01-15T13:07:04;1.40;96.50
36586;DHT22;22591;48.314;11.562;2024-01-15T13:09:30;1.40;96.70
36586;DHT22;22591;48.314;11.562;2024-01-15T13:11:56;1.40;96.90
36586;DHT22;22591;48.314;11.562;2024-01-15T13:14:21;1.40;96.20
36586;DHT22;22591;48.314;11.562;2024-01-15T13:16:47;1.50;96.40
36586;DHT22;22591;48.314;11.562;2024-01-15T13:19:12;1.40;96.40
36586;DHT22;22591;48.314;11.562;2024-01-15T13:21:42;1.30;96.70
36586;DHT22;22591;48.314;11.562;2024-01-15T13:24:08;1.30;96.80
36586;DHT22;22591;48.314;11.562;2024-01-15T13:26:34;1.30;96.90
36586;DHT22;22591;48.314;11.562;2024-01-15T13:29:00;1.20;97.20
36586;DHT22;22591;48.314;11.562;2024-01-15T13:31:27;1.10;97.20
36586;DHT22;22591;48.314;11.562;2024-01-15T13:33:53;1.10;96.90
36586;DHT22;22591;48.314;11.562;2024-01-15T13:36:18;1.00;97.30
36586;DHT22;22591;48.314;11.562;2024-01-15T13:38:44;1.00;97.10
36586;DHT22;22591;48.314;11.562;2024-01-15T13:41:09;1.00;97.60
36586;DHT22;22591;48.314;11.562;2024-01-15T13:43:35;0.70;97.60
36586;DHT22;22591;48.314;11.562;2024-01-15T13:46:00;1.00;98.00
36586;DHT22;22591;48.314;11.562;2024-01-15T13:48:30;0.90;98.20
36586;DHT22;22591;48.314;11.562;2024-01-15T13:50:55;0.90;98.40
36586;DHT22;22591;48.314;11.562;2024-01-15T13:53:21;0.90;98.40
36586;DHT22;22591;48.314;11.562;2024-01-15T13:55:46;0.90;98.60
36586;DHT22;22591;48.314;11.562;2024-01-15T13:58:13;0.90;99.10
36586;DHT22;22591;48.314;11.562;2024-01-15T14:00:38;0.90;99.10
36586;DHT22;22591;48.314;11.562;2024-01-15T14:03:04;0.90;98.90
36586;DHT22;22591;48.314;11.562;2024-01-15T14:05:30;0.90;99.10
36586;DHT22;22591;48.314;11.562;2024-01-15T14:07:56;0.90;99.20
36586;DHT22;22591;48.314;11.562;2024-01-15T14:10:21;0.90;99.50
36586;DHT22;22591;48.314;11.562;2024-01-15T14:12:47;0.90;99.60
36586;DHT22;22591;48.314;11.562;2024-01-15T14:15:12;0.90;99.40
36586;DHT22;22591;48.314;11.562;2024-01-15T14:17:38;0.90;99.90
36586;DHT22;22591;48.314;11.562;2024-01-15T14:20:04;0.80;99.90
36586;DHT22;22591;48.314;11.562;2024-01-15T14:22:30;0.80;99.90
36586;DHT22;22591;48.314;11.562;2024-01-15T14:24:56;0.80;99.90
36586;DHT22;22591;48.314;11.562;2024-01-15T14:27:21;0.90;99.90
36586;DHT22;22591;48.314;11.562;2024-01-15T14:29:47;0.90;99.90
36586;DHT22;22591;48.314;11.562;2024-01-15T14:32:13;0.90;99.90
36586;DHT22;22591;48.314;11.562;2024-01-15T14:34:38;0.90;99.90
36586;DHT22;22591;48.314;11.562;2024-01-15T14:37:04;0.90;99.90
36586;DHT22;22591;48.314;11.562;2024-01-15T14:39:29;0.80;99.90
36586;DHT22;22591;48.314;11.562;2024-01-15T14:41:57;0.70;99.90
36586;DHT22;22591;48.314;11.562;2024-01-15T14:44:22;0.60;99.90
36586;DHT22;22591;48.314;11.562;2024-01-15T14:46:49;0.70;99.90
36586;DHT22;22591;48.314;11.562;2024-01-15T14:49:15;0.70;99.90
36586;DHT22;22591;48.314;11.562;2024-01-15T14:51:42;0.70;99.90
36586;DHT22;22591;48.314;11.562;2024-01-15T14:54:10;0.60;99.90
36586;DHT22;22591;48.314;11.562;2024-01-15T14:56:35;0.60;99.90
36586;DHT22;22591;48.314;11.562;2024-01-15T14:59:01;0.60;99.90
36586;DHT22;22591;48.314;11.562;2024-01-15T15:01:26;0.60;99.90
36586;DHT22;22591;48.314;11.562;2024-01-15T15:03:52;0.60;99.90
36586;DHT22;22591;48.314;11.562;2024-01-15T15:06:17;0.50;99.90
36586;DHT22;22591;48.314;11.562;2024-01-15T15:08:43;0.60;99.90
36586;DHT22;22591;48.314;11.562;2024-01-15T15:11:08;0.60;99.90
36586;DHT22;22591;48.314;11.562;2024-01-15T15:13:34;0.60;99.90
36586;DHT22;22591;48.314;11.562;2024-01-15T15:16:00;0.60;99.90
36586;DHT22;22591;48.314;11.562;2024-01-15T15:18:26;0.60;99.90